sensor_id;sensor_type;location;lat;lon;timestamp;temperature;humidity
20858;DHT22;10589;53.636;10.012;2024-01-16T04:45:22;-0.60;99.90
20858;DHT22;10589;53.636;10.012;2024-01-16T04:47:48;-0.60;99.90
20858;DHT22;10589;53.636;10.012;2024-01-16T04:50:14;-0.60;99.90
20858;DHT22;10589;53.636;10.012;2024-01-16T04:52:39;-0.60;99.90
20858;DHT22;10589;53.636;10.012;2024-01-16T04:55:05;-0.60;99.90
20858;DHT22;10589;53.636;10.012;2024-01-16T04:57:31;-0.60;99.90
20858;DHT22;10589;53.636;10.012;2024-01-16T04:59:56;-0.60;99.90
20858;DHT22;10589;53.636;10.012;2024-01-16T05:02:22;-0.60;99.90
20858;DHT22;10589;53.636;10.012;2024-01-16T05:04:48;-0.70;99.90
20858;DHT22;10589;53.636;10.012;2024-01-16T05:07:15;-0.80;99.90
20858;DHT22;10589;53.636;10.012;2024-01-16T05:09:40;-0.90;99.90
20858;DHT22;10589;53.636;10.012;2024-01-16T05:12:06;-0.80;99.90
20858;DHT22;10589;53.636;10.012;2024-01-16T05:14:32;-0.80;99.90
20858;DHT22;10589;53.636;10.012;2024-01-16T05:16:57;-0.90;99.90
20858;DHT22;10589;53.636;10.012;2024-01-16T05:19:23;-0.90;99.90
20858;DHT22;10589;53.636;10.012;2024-01-16T05:21:48;-0.80;99.90
20858;DHT22;10589;53.636;10.012;2024-01-16T05:24:14;-0.70;99.90
20858;DHT22;10589;53.636;10.012;2024-01-16T05:26:40;-0.70;99.90
20858;DHT22;10589;53.636;10.012;2024-01-16T05:29:05;-0.60;99.90
20858;DHT22;10589;53.636;10.012;2024-01-16T05:31:32;-0.60;99.90
20858;DHT22;10589;53.636;10.012;2024-01-16T05:33:57;-0.60;99.90
20858;DHT22;10589;53.636;10.012;2024-01-16T05:36:23;-0.60;99.90
20858;DHT22;10589;53.636;10.012;2024-01-16T05:38:50;-0.50;99.90
20858;DHT22;10589;53.636;10.012;2024-01-16T05:41:15;-0.50;99.90
20858;DHT22;10589;53.636;10.012;2024-01-16T05:43:41;-0.40;99.90
20858;DHT22;10589;53.636;10.012;2024-01-16T05:46:07;-0.30;99.90
20858;DHT22;10589;53.636;10.012;2024-01-16T05:48:32;-0.30;99.90
20858;DHT22;10589;53.636;10.012;2024-01-16T05:50:58;-0.30;99.90
20858;DHT22;10589;53.636;10.012;2024-01-16T05:53:23;-0.30;99.90
20858;DHT22;10589;53.636;10.012;2024-01-16T05:55:49;-0.30;99.90
20858;DHT22;10589;53.636;10.012;2024-01-16T05:58:15;-0.30;99.90
20858;DHT22;10589;53.636;10.012;2024-01-16T06:00:40;-0.20;99.90
20858;DHT22;10589;53.636;10.012;2024-01-16T06:03:06;-0.20;99.90
20858;DHT22;10589;53.636;10.012;2024-01-16T06:05:31;-0.30;99.90
20858;DHT22;10589;53.636;10.012;2024-01-16T06:07:57;-0.30;99.90
20858;DHT22;10589;53.636;10.012;2024-01-16T06:10:23;-0.40;99.90
20858;DHT22;10589;53.636;10.012;2024-01-16T06:12:49;-0.40;99.90
20858;DHT22;10589;53.636;10.012;2024-01-16T06:15:15;-0.40;99.90
20858;DHT22;10589;53.636;10.012;2024-01-16T06:17:40;-0.40;99.90
20858;DHT22;10589;53.636;10.012;2024-01-16T06:20:06;-0.40;99.90
20858;DHT22;10589;53.636;10.012;2024-01-16T06:22:32;-0.40;99.90
20858;DHT22;10589;53.636;10.012;2024-01-16T06:24:57;-0.30;99.90
20858;DHT22;10589;53.636;10.012;2024-01-16T06:27:23;-0.30;99.90
20858;DHT22;10589;53.636;10.012;2024-01-16T06:29:49;-0.30;99.90
20858;DHT22;10589;53.636;10.012;2024-01-16T06:32:16;-0.20;99.90
20858;DHT22;10589;53.636;10.012;2024-01-16T06:34:42;-0.10;99.90
20858;DHT22;10589;53.636;10.012;2024-01-16T06:37:07;-0.20;99.90
20858;DHT22;10589;53.636;10.012;2024-01-16T06:39:33;-0.10;99.90
20858;DHT22;10589;53.636;10.012;2024-01-16T06:41:59;-0.10;99.90
20858;DHT22;10589;53.636;10.012;2024-01-16T06:44:25;-0.10;99.90
20858;DHT22;10589;53.636;10.012;2024-01-16T06:46:51;-0.10;99.90
20858;DHT22;10589;53.636;10.012;2024-01-16T06:49:17;-0.10;99.90
20858;DHT22;10589;53.636;10.012;2024-01-16T06:51:43;0.00;99.90
20858;DHT22;10589;53.636;10.012;2024-01-16T06:54:08;0.00;99.90
20858;DHT22;10589;53.636;10.012;2024-01-16T06:56:34;0.00;99.90
20858;DHT22;10589;53.636;10.012;2024-01-16T06:58:59;0.00;99.90
20858;DHT22;10589;53.636;10.012;2024-01-16T07:01:26;0.00;99.90
20858;DHT22;10589;53.636;10.012;2024-01-16T07:03:51;0.00;99.90
20858;DHT22;10589;53.636;10.012;2024-01-16T07:06:18;0.00;99.90
20858;DHT22;10589;53.636;10.012;2024-01-16T07:08:43;-0.10;99.90
20858;DHT22;10589;53.636;10.012;2024-01-16T07:11:09;-0.10;99.90
20858;DHT22;10589;53.636;10.012;2024-01-16T07:13:38;-0.10;99.90
20858;DHT22;10589;53.636;10.012;2024-01-16T07:16:04;-0.10;99.90
20858;DHT22;10589;53.636;10.012;2024-01-16T07:18:30;-0.20;99.90
20858;DHT22;10589;53.636;10.012;2024-01-16T07:20:55;-0.20;99.90
20858;DHT22;10589;53.636;10.012;2024-01-16T07:23:21;-0.20;99.90
20858;DHT22;10589;53.636;10.012;2024-01-16T07:25:46;-0.20;99.90
20858;DHT22;10589;53.636;10.012;2024-01-16T07:28:12;-0.20;99.90
20858;DHT22;10589;53.636;10.012;2024-01-16T07:30:38;-0.20;99.90
20858;DHT22;10589;53.636;10.012;2024-01-16T07:33:04;-0.20;99.90
20858;DHT22;10589;53.636;10.012;2024-01-16T07:35:29;-0.20;99.90
20858;DHT22;10589;53.636;10.012;2024-01-16T07:37:55;-0.10;99.90
20858;DHT22;10589;53.636;10.012;2024-01-16T07:40:21;-0.10;99.90
20858;DHT22;10589;53.636;10.012;2024-01-16T07:42:46;0.00;99.90
20858;DHT22;10589;53.636;10.012;2024-01-16T07:45:12;0.00;99.90
20858;DHT22;10589;53.636;10.012;2024-01-16T07:47:37;0.00;99.90
20858;DHT22;10589;53.636;10.012;2024-01-16T07:50:03;-0.10;99.90
20858;DHT22;10589;53.636;10.012;2024-01-16T07:52:29;-0.10;99.90
20858;DHT22;10589;53.636;10.012;2024-01-16T07:54:55;-0.10;99.90
20858;DHT22;10589;53.636;10.012;2024-01-16T07:57:20;-0.10;99.90
20858;DHT22;10589;53.636;10.012;2024-01-16T07:59:46;-0.10;99.90
20858;DHT22;10589;53.636;10.012;2024-01-16T08:02:12;-0.10;99.90
20858;DHT22;10589;53.636;10.012;2024-01-16T08:04:38;-0.10;99.90
20858;DHT22;10589;53.636;10.012;2024-01-16T08:07:03;0.00;99.90
20858;DHT22;10589;53.636;10.012;2024-01-16T08:09:29;0.00;99.90
20858;DHT22;10589;53.636;10.012;2024-01-16T08:11:54;0.00;99.90
20858;DHT22;10589;53.636;10.012;2024-01-16T08:14:20;0.10;99.90
20858;DHT22;10589;53.636;10.012;2024-01-16T08:16:46;0.10;99.90
20858;DHT22;10589;53.636;10.012;2024-01-16T08:19:11;0.20;99.90
20858;DHT22;10589;53.636;10.012;2024-01-16T08:21:37;0.20;99.90
20858;DHT22;10589;53.636;10.012;2024-01-16T08:24:03;0.10;99.90
20858;DHT22;10589;53.636;10.012;2024-01-16T08:26:28;0.20;99.90
20858;DHT22;10589;53.636;10.012;2024-01-16T08:28:54;0.20;99.90
20858;DHT22;10589;53.636;10.012;2024-01-16T08:31:20;0.20;99.90
20858;DHT22;10589;53.636;10.012;2024-01-16T08:33:46;0.20;99.90
20858;DHT22;10589;53.636;10.012;2024-01-16T08:36:12;0.30;99.90
20858;DHT22;10589;53.636;10.012;2024-01-16T08:38:38;0.30;99.90
20858;DHT22;10589;53.636;10.012;2024-01-16T08:41:04;0.30;99.90
20858;DHT22;10589;53.636;10.012;2024-01-16T08:43:33;0.30;99.90
20858;DHT22;10589;53.636;10.012;2024-01-16T08:45:59;0.20;99.90
20858;DHT22;10589;53.636;10.012;2024-01-16T08:48:24;0.20;99.90
20858;DHT22;10589;53.636;10.012;2024-01-16T08:50:51;0.20;99.90
20858;DHT22;10589;53.636;10.012;2024-01-16T08:53:17;0.20;99.90
20858;DHT22;10589;53.636;10.012;2024-01-16T08:55:42;0.20;99.90
20858;DHT22;10589;53.636;10.012;2024-01-16T08:58:08;0.20;99.90
20858;DHT22;10589;53.636;10.012;2024-01-16T09:00:33;0.20;99.90
20858;DHT22;10589;53.636;10.012;2024-01-16T09:02:59;0.30;99.90
20858;DHT22;10589;53.636;10.012;2024-01-16T09:05:25;0.30;99.90
20858;DHT22;10589;53.636;10.012;2024-01-16T09:07:51;0.30;99.90
20858;DHT22;10589;53.636;10.012;2024-01-16T09:10:18;0.30;99.90
20858;DHT22;10589;53.636;10.012;2024-01-16T09:12:44;0.40;99.90
20858;DHT22;10589;53.636;10.012;2024-01-16T09:15:10;0.30;99.90
20858;DHT22;10589;53.636;10.012;2024-01-16T09:17:36;0.40;99.90
20858;DHT22;10589;53.636;10.012;2024-01-16T09:20:01;0.40;99.90
20858;DHT22;10589;53.636;10.012;2024-01-16T09:22:27;0.40;99.90
20858;DHT22;10589;53.636;10.012;2024-01-16T09:24:53;0.40;99.90
20858;DHT22;10589;53.636;10.012;2024-01-16T09:27:18;0.40;99.90
20858;DHT22;10589;53.636;10.012;2024-01-16T09:29:45;0.40;99.90
20858;DHT22;10589;53.636;10.012;2024-01-16T09:32:10;0.40;99.90
20858;DHT22;10589;53.636;10.012;2024-01-16T09:34:36;0.40;99.90
20858;DHT22;10589;53.636;10.012;2024-01-16T09:37:02;0.40;99.90
20858;DHT22;10589;53.636;10.012;2024-01-16T09:39:28;0.40;99.90
20858;DHT22;10589;53.636;10.012;2024-01-16T09:41:57;0.40;99.90
20858;DHT22;10589;53.636;10.012;2024-01-16T09:44:25;0.50;99.90
20858;DHT22;10589;53.636;10.012;2024-01-16T09:46:53;0.50;99.90
20858;DHT22;10589;53.636;10.012;2024-01-16T09:49:20;0.50;99.90
20858;DHT22;10589;53.636;10.012;2024-01-16T09:51:46;0.60;99.90
20858;DHT22;10589;53.636;10.012;2024-01-16T09:54:11;0.70;99.90
20858;DHT22;10589;53.636;10.012;2024-01-16T09:56:48;0.70;99.90
20858;DHT22;10589;53.636;10.012;2024-01-16T09:59:17;0.80;99.90
20858;DHT22;10589;53.636;10.012;2024-01-16T10:01:48;0.80;99.90
20858;DHT22;10589;53.636;10.012;2024-01-16T10:04:15;0.90;99.90
20858;DHT22;10589;53.636;10.012;2024-01-16T10:06:41;0.80;99.90
20858;DHT22;10589;53.636;10.012;2024-01-16T10:09:11;1.00;99.90
20858;DHT22;10589;53.636;10.012;2024-01-16T10:11:38;1.00;99.90
20858;DHT22;10589;53.636;10.012;2024-01-16T10:14:04;1.00;99.90
20858;DHT22;10589;53.636;10.012;2024-01-16T10:16:56;0.90;99.90
20858;DHT22;10589;53.636;10.012;2024-01-16T10:19:29;0.90;99.90
20858;DHT22;10589;53.636;10.012;2024-01-16T10:22:02;1.00;99.90
20858;DHT22;10589;53.636;10.012;2024-01-16T10:24:28;1.00;99.90
20858;DHT22;10589;53.636;10.012;2024-01-16T10:26:58;0.90;99.90
20858;DHT22;10589;53.636;10.012;2024-01-16T10:29:31;0.90;99.90
20858;DHT22;10589;53.636;10.012;2024-01-16T10:32:00;0.90;99.90
20858;DHT22;10589;53.636;10.012;2024-01-16T10:34:26;1.00;99.90
20858;DHT22;10589;53.636;10.012;2024-01-16T10:36:58;1.00;99.90
20858;DHT22;10589;53.636;10.012;2024-01-16T10:39:25;1.00;99.90
20858;DHT22;10589;53.636;10.012;2024-01-16T10:41:57;1.00;99.90
20858;DHT22;10589;53.636;10.012;2024-01-16T10:44:24;1.10;99.90
20858;DHT22;10589;53.636;10.012;2024-01-16T10:46:50;1.10;99.90
20858;DHT22;10589;53.636;10.012;2024-01-16T10:49:15;1.20;99.90
20858;DHT22;10589;53.636;10.012;2024-01-16T10:51:44;1.10;99.90
20858;DHT22;10589;53.636;10.012;2024-01-16T10:54:13;1.10;99.90
20858;DHT22;10589;53.636;10.012;2024-01-16T10:56:45;1.20;99.90
20858;DHT22;10589;53.636;10.012;2024-01-16T11:00:03;1.20;99.90
20858;DHT22;10589;53.636;10.012;2024-01-16T11:02:24;1.30;99.90
20858;DHT22;10589;53.636;10.012;2024-01-16T11:04:54;1.30;99.90
20858;DHT22;10589;53.636;10.012;2024-01-16T11:07:21;1.20;99.90
20858;DHT22;10589;53.636;10.012;2024-01-16T11:09:48;1.30;99.90
20858;DHT22;10589;53.636;10.012;2024-01-16T11:12:15;1.30;99.90
20858;DHT22;10589;53.636;10.012;2024-01-16T11:14:45;1.40;99.90
20858;DHT22;10589;53.636;10.012;2024-01-16T11:17:13;1.40;99.90
20858;DHT22;10589;53.636;10.012;2024-01-16T11:19:44;1.40;99.90
20858;DHT22;10589;53.636;10.012;2024-01-16T11:22:10;1.40;99.90
20858;DHT22;10589;53.636;10.012;2024-01-16T11:24:36;1.40;99.90
20858;DHT22;10589;53.636;10.012;2024-01-16T11:27:02;1.40;99.90
20858;DHT22;10589;53.636;10.012;2024-01-16T11:31:55;1.60;99.90
20858;DHT22;10589;53.636;10.012;2024-01-16T11:34:57;1.60;99.90
20858;DHT22;10589;53.636;10.012;2024-01-16T11:37:30;1.60;99.90
20858;DHT22;10589;53.636;10.012;2024-01-16T11:42:42;1.70;99.90
20858;DHT22;10589;53.636;10.012;2024-01-16T11:48:11;1.70;99.90
20858;DHT22;10589;53.636;10.012;2024-01-16T11:50:37;1.70;99.90
20858;DHT22;10589;53.636;10.012;2024-01-16T11:53:03;1.70;99.90
20858;DHT22;10589;53.636;10.012;2024-01-16T11:55:33;1.50;99.90
20858;DHT22;10589;53.636;10.012;2024-01-16T12:00:45;1.70;99.90
20858;DHT22;10589;53.636;10.012;2024-01-16T12:03:14;1.60;99.90
20858;DHT22;10589;53.636;10.012;2024-01-16T12:05:42;1.60;99.90
20858;DHT22;10589;53.636;10.012;2024-01-16T12:08:09;1.50;99.90
20858;DHT22;10589;53.636;10.012;2024-01-16T12:10:46;1.50;99.90
20858;DHT22;10589;53.636;10.012;2024-01-16T12:13:13;1.50;99.90
20858;DHT22;10589;53.636;10.012;2024-01-16T12:15:39;1.50;99.90
20858;DHT22;10589;53.636;10.012;2024-01-16T12:18:04;1.50;99.90
20858;DHT22;10589;53.636;10.012;2024-01-16T12:20:35;1.50;99.90
20858;DHT22;10589;53.636;10.012;2024-01-16T12:23:05;1.60;99.90
20858;DHT22;10589;53.636;10.012;2024-01-16T12:25:35;1.60;99.90
20858;DHT22;10589;53.636;10.012;2024-01-16T12:28:05;1.70;99.90
20858;DHT22;10589;53.636;10.012;2024-01-16T12:30:33;1.80;99.90
20858;DHT22;10589;53.636;10.012;2024-01-16T12:33:10;1.80;99.90
20858;DHT22;10589;53.636;10.012;2024-01-16T12:35:40;1.80;99.90
20858;DHT22;10589;53.636;10.012;2024-01-16T12:38:08;1.80;99.90
20858;DHT22;10589;53.636;10.012;2024-01-16T12:40:41;1.70;99.90
20858;DHT22;10589;53.636;10.012;2024-01-16T12:43:08;1.80;99.90
20858;DHT22;10589;53.636;10.012;2024-01-16T12:45:36;1.80;99.90
20858;DHT22;10589;53.636;10.012;2024-01-16T12:48:02;1.80;99.90
20858;DHT22;10589;53.636;10.012;2024-01-16T12:50:32;1.80;99.90
20858;DHT22;10589;53.636;10.012;2024-01-16T12:53:05;1.70;99.90
20858;DHT22;10589;53.636;10.012;2024-01-16T12:55:33;1.70;99.90
20858;DHT22;10589;53.636;10.012;2024-01-16T12:58:18;1.70;99.90
20858;DHT22;10589;53.636;10.012;2024-01-16T13:00:48;1.70;99.90
20858;DHT22;10589;53.636;10.012;2024-01-16T13:03:18;1.70;99.90
20858;DHT22;10589;53.636;10.012;2024-01-16T13:05:44;1.70;99.90
20858;DHT22;10589;53.636;10.012;2024-01-16T13:08:18;1.70;99.90
20858;DHT22;10589;53.636;10.012;2024-01-16T13:10:45;1.60;99.90
20858;DHT22;10589;53.636;10.012;2024-01-16T13:13:21;1.50;99.90
20858;DHT22;10589;53.636;10.012;2024-01-16T13:15:47;1.50;99.90
20858;DHT22;10589;53.636;10.012;2024-01-16T13:18:25;1.50;99.90
20858;DHT22;10589;53.636;10.012;2024-01-16T13:20:52;1.50;99.90
20858;DHT22;10589;53.636;10.012;2024-01-16T13:23:19;1.50;99.90
20858;DHT22;10589;53.636;10.012;2024-01-16T13:25:46;1.60;99.90
20858;DHT22;10589;53.636;10.012;2024-01-16T13:28:15;1.60;99.90
20858;DHT22;10589;53.636;10.012;2024-01-16T13:30:42;1.60;99.90
20858;DHT22;10589;53.636;10.012;2024-01-16T13:33:08;1.60;99.90
20858;DHT22;10589;53.636;10.012;2024-01-16T13:35:44;1.50;99.90
20858;DHT22;10589;53.636;10.012;2024-01-16T13:38:13;1.40;99.90
20858;DHT22;10589;53.636;10.012;2024-01-16T13:40:41;1.40;99.90
20858;DHT22;10589;53.636;10.012;2024-01-16T13:43:07;1.40;99.90
20858;DHT22;10589;53.636;10.012;2024-01-16T13:45:33;1.50;99.90
20858;DHT22;10589;53.636;10.012;2024-01-16T13:48:01;1.50;99.90
20858;DHT22;10589;53.636;10.012;2024-01-16T13:50:27;1.40;99.90
20858;DHT22;10589;53.636;10.012;2024-01-16T13:52:52;1.50;99.90
20858;DHT22;10589;53.636;10.012;2024-01-16T13:55:21;1.50;99.90
20858;DHT22;10589;53.636;10.012;2024-01-16T13:57:47;1.40;99.90
20858;DHT22;10589;53.636;10.012;2024-01-16T14:00:14;1.40;99.90
20858;DHT22;10589;53.636;10.012;2024-01-16T14:02:45;1.40;99.90
20858;DHT22;10589;53.636;10.012;2024-01-16T14:05:12;1.40;99.90
20858;DHT22;10589;53.636;10.012;2024-01-16T14:07:41;1.40;99.90
20858;DHT22;10589;53.636;10.012;2024-01-16T14:10:10;1.30;99.90
20858;DHT22;10589;53.636;10.012;2024-01-16T14:12:41;1.30;99.90
20858;DHT22;10589;53.636;10.012;2024-01-16T14:15:15;1.30;99.90
20858;DHT22;10589;53.636;10.012;2024-01-16T14:17:52;1.30;99.90
20858;DHT22;10589;53.636;10.012;2024-01-16T14:20:19;1.30;99.90
20858;DHT22;10589;53.636;10.012;2024-01-16T14:22:50;1.30;99.90
20858;DHT22;10589;53.636;10.012;2024-01-16T14:25:17;1.40;99.90
20858;DHT22;10589;53.636;10.012;2024-01-16T14:27:47;1.30;99.90
20858;DHT22;10589;53.636;10.012;2024-01-16T14:30:15;1.30;99.90
20858;DHT22;10589;53.636;10.012;2024-01-16T14:32:43;1.10;99.90
20858;DHT22;10589;53.636;10.012;2024-01-16T14:35:11;1.20;99.90
20858;DHT22;10589;53.636;10.012;2024-01-16T14:37:40;1.20;99.90
20858;DHT22;10589;53.636;10.012;2024-01-16T14:40:08;1.20;99.90
20858;DHT22;10589;53.636;10.012;2024-01-16T14:42:54;1.20;99.90
20858;DHT22;10589;53.636;10.012;2024-01-16T14:45:21;1.20;99.90
20858;DHT22;10589;53.636;10.012;2024-01-16T14:47:48;1.30;99.90
20858;DHT22;10589;53.636;10.012;2024-01-16T14:50:15;1.30;99.90
20858;DHT22;10589;53.636;10.012;2024-01-16T14:52:46;1.30;99.90
20858;DHT22;10589;53.636;10.012;2024-01-16T14:55:12;1.30;99.90
20858;DHT22;10589;53.636;10.012;2024-01-16T14:57:37;1.30;99.90
20858;DHT22;10589;53.636;10.012;2024-01-16T15:00:08;1.20;99.90
20858;DHT22;10589;53.636;10.012;2024-01-16T15:03:00;1.30;99.90
20858;DHT22;10589;53.636;10.012;2024-01-16T15:05:27;1.30;99.90
20858;DHT22;10589;53.636;10.012;2024-01-16T15:07:52;1.30;99.90
20858;DHT22;10589;53.636;10.012;2024-01-16T15:10:18;1.30;99.90
20858;DHT22;10589;53.636;10.012;2024-01-16T15:12:45;1.20;99.90
20858;DHT22;10589;53.636;10.012;2024-01-16T15:15:13;1.20;99.90
20858;DHT22;10589;53.636;10.012;2024-01-16T15:17:43;1.20;99.90
20858;DHT22;10589;53.636;10.012;2024-01-16T15:20:09;1.10;99.90
20858;DHT22;10589;53.636;10.012;2024-01-16T15:22:39;1.20;99.90
20858;DHT22;10589;53.636;10.012;2024-01-16T15:25:05;1.20;99.90
20858;DHT22;10589;53.636;10.012;2024-01-16T15:27:31;1.10;99.90
20858;DHT22;10589;53.636;10.012;2024-01-16T15:29:56;1.20;99.90
20858;DHT22;10589;53.636;10.012;2024-01-16T15:32:23;1.10;99.90
20858;DHT22;10589;53.636;10.012;2024-01-16T15:34:49;1.20;99.90
20858;DHT22;10589;53.636;10.012;2024-01-16T15:37:14;1.10;99.90
20858;DHT22;10589;53.636;10.012;2024-01-16T15:39:40;1.10;99.90
20858;DHT22;10589;53.636;10.012;2024-01-16T15:42:06;1.10;99.90
20858;DHT22;10589;53.636;10.012;2024-01-16T15:44:32;1.10;99.90
20858;DHT22;10589;53.636;10.012;2024-01-16T15:47:01;1.10;99.90
20858;DHT22;10589;53.636;10.012;2024-01-16T15:49:28;1.00;99.90
20858;DHT22;10589;53.636;10.012;2024-01-16T15:51:55;1.00;99.90
20858;DHT22;10589;53.636;10.012;2024-01-16T15:54:21;1.00;99.90
20858;DHT22;10589;53.636;10.012;2024-01-16T15:56:48;1.10;99.90
20858;DHT22;10589;53.636;10.012;2024-01-16T15:59:14;1.00;99.90
20858;DHT22;10589;53.636;10.012;2024-01-16T16:01:40;1.00;99.90
20858;DHT22;10589;53.636;10.012;2024-01-16T16:04:06;1.10;99.90
20858;DHT22;10589;53.636;10.012;2024-01-16T16:06:35;1.20;99.90
20858;DHT22;10589;53.636;10.012;2024-01-16T16:09:02;1.20;99.90
20858;DHT22;10589;53.636;10.012;2024-01-16T16:11:28;1.20;99.90
20858;DHT22;10589;53.636;10.012;2024-01-16T16:13:53;1.20;99.90
20858;DHT22;10589;53.636;10.012;2024-01-16T16:16:19;1.20;99.90
20858;DHT22;10589;53.636;10.012;2024-01-16T16:18:45;1.20;99.90
20858;DHT22;10589;53.636;10.012;2024-01-16T16:21:11;1.20;99.90
20858;DHT22;10589;53.636;10.012;2024-01-16T16:23:37;1.00;99.90
20858;DHT22;10589;53.636;10.012;2024-01-16T16:26:02;1.00;99.90
20858;DHT22;10589;53.636;10.012;2024-01-16T16:28:28;1.00;99.90
20858;DHT22;10589;53.636;10.012;2024-01-16T16:30:54;1.00;99.90
20858;DHT22;10589;53.636;10.012;2024-01-16T16:33:19;0.90;99.90
20858;DHT22;10589;53.636;10.012;2024-01-16T16:35:45;0.90;99.90
20858;DHT22;10589;53.636;10.012;2024-01-16T16:38:10;0.90;99.90
20858;DHT22;10589;53.636;10.012;2024-01-16T16:40:37;0.90;99.90
20858;DHT22;10589;53.636;10.012;2024-01-16T16:43:02;0.90;99.90
20858;DHT22;10589;53.636;10.012;2024-01-16T16:45:30;0.90;99.90
20858;DHT22;10589;53.636;10.012;2024-01-16T16:47:56;1.00;99.90
20858;DHT22;10589;53.636;10.012;2024-01-16T16:50:22;0.90;99.90
20858;DHT22;10589;53.636;10.012;2024-01-16T16:52:48;0.90;99.90
20858;DHT22;10589;53.636;10.012;2024-01-16T16:55:14;0.90;99.90
20858;DHT22;10589;53.636;10.012;2024-01-16T16:57:39;1.00;99.90
20858;DHT22;10589;53.636;10.012;2024-01-16T17:00:06;1.00;99.90
20858;DHT22;10589;53.636;10.012;2024-01-16T17:02:32;1.00;99.90
20858;DHT22;10589;53.636;10.012;2024-01-16T17:04:58;1.00;99.90
20858;DHT22;10589;53.636;10.012;2024-01-16T17:07:24;1.00;99.90
20858;DHT22;10589;53.636;10.012;2024-01-16T17:09:49;1.00;99.90
20858;DHT22;10589;53.636;10.012;2024-01-16T17:12:15;1.00;99.90
20858;DHT22;10589;53.636;10.012;2024-01-16T17:14:40;1.00;99.90
20858;DHT22;10589;53.636;10.012;2024-01-16T17:17:06;1.00;99.90
20858;DHT22;10589;53.636;10.012;2024-01-16T17:19:32;0.90;99.90
20858;DHT22;10589;53.636;10.012;2024-01-16T17:21:58;0.90;99.90
20858;DHT22;10589;53.636;10.012;2024-01-16T17:24:24;0.80;99.90
20858;DHT22;10589;53.636;10.012;2024-01-16T17:26:49;0.90;99.90
20858;DHT22;10589;53.636;10.012;2024-01-16T17:29:16;0.90;99.90
20858;DHT22;10589;53.636;10.012;2024-01-16T17:31:41;0.80;99.90
20858;DHT22;10589;53.636;10.012;2024-01-16T17:34:07;0.90;99.90
20858;DHT22;10589;53.636;10.012;2024-01-16T17:36:33;0.90;99.90
20858;DHT22;10589;53.636;10.012;2024-01-16T17:38:58;0.80;99.90
20858;DHT22;10589;53.636;10.012;2024-01-16T17:41:28;0.80;99.90
20858;DHT22;10589;53.636;10.012;2024-01-16T17:43:54;0.80;99.90
20858;DHT22;10589;53.636;10.012;2024-01-16T17:46:21;0.80;99.90
20858;DHT22;10589;53.636;10.012;2024-01-16T17:48:47;0.80;99.90
20858;DHT22;10589;53.636;10.012;2024-01-16T17:51:13;0.80;99.90
20858;DHT22;10589;53.636;10.012;2024-01-16T17:53:39;0.80;99.90
20858;DHT22;10589;53.636;10.012;2024-01-16T17:56:07;0.70;99.90
20858;DHT22;10589;53.636;10.012;2024-01-16T17:58:34;0.80;99.90
20858;DHT22;10589;53.636;10.012;2024-01-16T18:00:59;0.70;99.90
20858;DHT22;10589;53.636;10.012;2024-01-16T18:03:25;0.70;99.90
20858;DHT22;10589;53.636;10.012;2024-01-16T18:05:54;0.70;99.90
20858;DHT22;10589;53.636;10.012;2024-01-16T18:08:19;0.70;99.90
20858;DHT22;10589;53.636;10.012;2024-01-16T18:10:48;0.70;99.90
20858;DHT22;10589;53.636;10.012;2024-01-16T18:13:18;0.70;99.90
20858;DHT22;10589;53.636;10.012;2024-01-16T18:15:44;0.70;99.90
20858;DHT22;10589;53.636;10.012;2024-01-16T18:18:10;0.70;99.90
20858;DHT22;10589;53.636;10.012;2024-01-16T18:20:39;0.70;99.90
20858;DHT22;10589;53.636;10.012;2024-01-16T18:23:05;0.70;99.90
20858;DHT22;10589;53.636;10.012;2024-01-16T18:25:32;0.70;99.90
20858;DHT22;10589;53.636;10.012;2024-01-16T18:27:59;0.60;99.90
20858;DHT22;10589;53.636;10.012;2024-01-16T18:30:25;0.70;99.90
20858;DHT22;10589;53.636;10.012;2024-01-16T18:32:52;0.70;99.90
20858;DHT22;10589;53.636;10.012;2024-01-16T18:35:19;0.70;99.90
20858;DHT22;10589;53.636;10.012;2024-01-16T18:37:45;0.70;99.90
20858;DHT22;10589;53.636;10.012;2024-01-16T18:40:14;0.70;99.90
20858;DHT22;10589;53.636;10.012;2024-01-16T18:42:44;0.70;99.90
20858;DHT22;10589;53.636;10.012;2024-01-16T18:45:10;0.70;99.90
20858;DHT22;10589;53.636;10.012;2024-01-16T18:47:39;0.70;99.90
20858;DHT22;10589;53.636;10.012;2024-01-16T18:50:07;0.70;99.90
20858;DHT22;10589;53.636;10.012;2024-01-16T18:52:39;0.70;99.90
20858;DHT22;10589;53.636;10.012;2024-01-16T18:55:06;0.70;99.90
20858;DHT22;10589;53.636;10.012;2024-01-16T18:57:36;0.60;99.90
20858;DHT22;10589;53.636;10.012;2024-01-16T19:00:06;0.70;99.90
20858;DHT22;10589;53.636;10.012;2024-01-16T19:02:42;0.60;99.90
20858;DHT22;10589;53.636;10.012;2024-01-16T19:05:12;0.60;99.90
20858;DHT22;10589;53.636;10.012;2024-01-16T19:07:43;0.60;99.90
20858;DHT22;10589;53.636;10.012;2024-01-16T19:10:15;0.60;99.90
20858;DHT22;10589;53.636;10.012;2024-01-16T19:12:43;0.60;99.90
20858;DHT22;10589;53.636;10.012;2024-01-16T19:15:12;0.50;99.90
20858;DHT22;10589;53.636;10.012;2024-01-16T19:17:47;0.50;99.90
20858;DHT22;10589;53.636;10.012;2024-01-16T19:20:14;0.50;99.90
20858;DHT22;10589;53.636;10.012;2024-01-16T19:22:48;0.50;99.90
20858;DHT22;10589;53.636;10.012;2024-01-16T19:25:14;0.40;99.90
20858;DHT22;10589;53.636;10.012;2024-01-16T19:27:42;0.40;99.90
20858;DHT22;10589;53.636;10.012;2024-01-16T19:30:11;0.40;99.90
20858;DHT22;10589;53.636;10.012;2024-01-16T19:32:42;0.40;99.90
20858;DHT22;10589;53.636;10.012;2024-01-16T19:35:09;0.30;99.90
20858;DHT22;10589;53.636;10.012;2024-01-16T19:37:35;0.40;99.90
20858;DHT22;10589;53.636;10.012;2024-01-16T19:40:02;0.30;99.90
20858;DHT22;10589;53.636;10.012;2024-01-16T19:42:27;0.40;99.90
20858;DHT22;10589;53.636;10.012;2024-01-16T19:44:53;0.30;99.90
20858;DHT22;10589;53.636;10.012;2024-01-16T19:47:20;0.30;99.90
20858;DHT22;10589;53.636;10.012;2024-01-16T19:49:45;0.30;99.90
20858;DHT22;10589;53.636;10.012;2024-01-16T19:52:11;0.30;99.90
20858;DHT22;10589;53.636;10.012;2024-01-16T19:54:38;0.30;99.90
20858;DHT22;10589;53.636;10.012;2024-01-16T19:57:05;0.20;99.90
20858;DHT22;10589;53.636;10.012;2024-01-16T19:59:31;0.20;99.90
20858;DHT22;10589;53.636;10.012;2024-01-16T20:01:57;0.10;99.90
20858;DHT22;10589;53.636;10.012;2024-01-16T20:04:23;0.20;99.90
20858;DHT22;10589;53.636;10.012;2024-01-16T20:06:48;0.20;99.90
20858;DHT22;10589;53.636;10.012;2024-01-16T20:09:19;0.10;99.90
20858;DHT22;10589;53.636;10.012;2024-01-16T20:11:45;0.10;99.90
20858;DHT22;10589;53.636;10.012;2024-01-16T20:14:11;0.00;99.90
20858;DHT22;10589;53.636;10.012;2024-01-16T20:16:38;0.00;99.90
20858;DHT22;10589;53.636;10.012;2024-01-16T20:19:05;0.00;99.90
20858;DHT22;10589;53.636;10.012;2024-01-16T20:21:31;0.00;99.90
20858;DHT22;10589;53.636;10.012;2024-01-16T20:23:58;0.00;99.90